sensor_id;sensor_type;location;lat;lon;timestamp;P1;durP1;ratioP1;P2;durP2;ratioP2
15181;SDS011;7692;50.602;8.692;2023-10-13T00:01:06;0.60;;;0.60;;
15181;SDS011;7692;50.602;8.692;2023-10-13T00:03:36;0.60;;;0.60;;
15181;SDS011;7692;50.602;8.692;2023-10-13T00:06:04;0.60;;;0.60;;
15181;SDS011;7692;50.602;8.692;2023-10-13T00:08:32;0.60;;;0.60;;
15181;SDS011;7692;50.602;8.692;2023-10-13T00:11:02;0.60;;;0.60;;
15181;SDS011;7692;50.602;8.692;2023-10-13T00:13:31;0.60;;;0.60;;
15181;SDS011;7692;50.602;8.692;2023-10-13T00:16:11;0.60;;;0.60;;
15181;SDS011;7692;50.602;8.692;2023-10-13T00:18:45;0.60;;;0.60;;
15181;SDS011;7692;50.602;8.692;2023-10-13T00:21:14;0.70;;;0.70;;
15181;SDS011;7692;50.602;8.692;2023-10-13T00:23:46;0.60;;;0.60;;
15181;SDS011;7692;50.602;8.692;2023-10-13T00:26:20;0.60;;;0.60;;
15181;SDS011;7692;50.602;8.692;2023-10-13T00:28:54;0.70;;;0.70;;
15181;SDS011;7692;50.602;8.692;2023-10-13T00:31:35;0.70;;;0.70;;
15181;SDS011;7692;50.602;8.692;2023-10-13T00:34:06;0.60;;;0.60;;
15181;SDS011;7692;50.602;8.692;2023-10-13T00:36:38;0.65;;;0.65;;
15181;SDS011;7692;50.602;8.692;2023-10-13T00:39:15;0.60;;;0.60;;
15181;SDS011;7692;50.602;8.692;2023-10-13T00:41:43;0.60;;;0.60;;
15181;SDS011;7692;50.602;8.692;2023-10-13T00:44:18;0.70;;;0.70;;
15181;SDS011;7692;50.602;8.692;2023-10-13T00:46:53;0.60;;;0.60;;
15181;SDS011;7692;50.602;8.692;2023-10-13T00:49:24;0.60;;;0.60;;
15181;SDS011;7692;50.602;8.692;2023-10-13T00:51:56;0.60;;;0.60;;
15181;SDS011;7692;50.602;8.692;2023-10-13T00:54:24;0.60;;;0.60;;
15181;SDS011;7692;50.602;8.692;2023-10-13T00:56:54;0.60;;;0.60;;
15181;SDS011;7692;50.602;8.692;2023-10-13T00:59:31;0.70;;;0.70;;
15181;SDS011;7692;50.602;8.692;2023-10-13T01:02:08;0.60;;;0.60;;
15181;SDS011;7692;50.602;8.692;2023-10-13T01:04:52;0.60;;;0.60;;
15181;SDS011;7692;50.602;8.692;2023-10-13T01:07:21;0.60;;;0.60;;
15181;SDS011;7692;50.602;8.692;2023-10-13T01:09:50;0.63;;;0.63;;
15181;SDS011;7692;50.602;8.692;2023-10-13T01:12:18;0.60;;;0.60;;
15181;SDS011;7692;50.602;8.692;2023-10-13T01:14:44;0.60;;;0.60;;
15181;SDS011;7692;50.602;8.692;2023-10-13T01:17:15;0.60;;;0.60;;
15181;SDS011;7692;50.602;8.692;2023-10-13T01:19:42;0.60;;;0.60;;
15181;SDS011;7692;50.602;8.692;2023-10-13T01:22:13;0.60;;;0.60;;
15181;SDS011;7692;50.602;8.692;2023-10-13T01:24:42;0.60;;;0.60;;
15181;SDS011;7692;50.602;8.692;2023-10-13T01:27:12;0.60;;;0.60;;
15181;SDS011;7692;50.602;8.692;2023-10-13T01:29:43;0.63;;;0.63;;
15181;SDS011;7692;50.602;8.692;2023-10-13T01:32:14;0.60;;;0.60;;
15181;SDS011;7692;50.602;8.692;2023-10-13T01:34:42;0.60;;;0.60;;
15181;SDS011;7692;50.602;8.692;2023-10-13T01:37:15;0.70;;;0.70;;
15181;SDS011;7692;50.602;8.692;2023-10-13T01:39:44;0.60;;;0.60;;
15181;SDS011;7692;50.602;8.692;2023-10-13T01:42:14;0.60;;;0.60;;
15181;SDS011;7692;50.602;8.692;2023-10-13T01:44:46;0.63;;;0.63;;
15181;SDS011;7692;50.602;8.692;2023-10-13T01:47:14;0.60;;;0.60;;
15181;SDS011;7692;50.602;8.692;2023-10-13T01:49:42;0.60;;;0.60;;
15181;SDS011;7692;50.602;8.692;2023-10-13T01:52:14;0.70;;;0.70;;
15181;SDS011;7692;50.602;8.692;2023-10-13T01:54:45;0.60;;;0.60;;
15181;SDS011;7692;50.602;8.692;2023-10-13T01:57:16;0.60;;;0.60;;
15181;SDS011;7692;50.602;8.692;2023-10-13T01:59:44;0.60;;;0.60;;
15181;SDS011;7692;50.602;8.692;2023-10-13T02:02:14;0.70;;;0.70;;
15181;SDS011;7692;50.602;8.692;2023-10-13T02:04:46;0.60;;;0.60;;
15181;SDS011;7692;50.602;8.692;2023-10-13T02:07:21;0.60;;;0.60;;
15181;SDS011;7692;50.602;8.692;2023-10-13T02:09:54;0.70;;;0.70;;
15181;SDS011;7692;50.602;8.692;2023-10-13T02:12:22;0.60;;;0.60;;
15181;SDS011;7692;50.602;8.692;2023-10-13T02:14:55;0.60;;;0.60;;
15181;SDS011;7692;50.602;8.692;2023-10-13T02:17:26;0.70;;;0.70;;
15181;SDS011;7692;50.602;8.692;2023-10-13T02:19:54;0.60;;;0.60;;
15181;SDS011;7692;50.602;8.692;2023-10-13T02:22:21;0.60;;;0.60;;
15181;SDS011;7692;50.602;8.692;2023-10-13T02:24:55;0.70;;;0.70;;
15181;SDS011;7692;50.602;8.692;2023-10-13T02:27:28;0.60;;;0.60;;
15181;SDS011;7692;50.602;8.692;2023-10-13T02:29:55;0.70;;;0.70;;
15181;SDS011;7692;50.602;8.692;2023-10-13T02:32:25;0.70;;;0.70;;
15181;SDS011;7692;50.602;8.692;2023-10-13T02:34:53;0.60;;;0.60;;
15181;SDS011;7692;50.602;8.692;2023-10-13T02:37:32;0.60;;;0.60;;
15181;SDS011;7692;50.602;8.692;2023-10-13T02:40:00;0.60;;;0.60;;
15181;SDS011;7692;50.602;8.692;2023-10-13T02:42:29;0.60;;;0.60;;
15181;SDS011;7692;50.602;8.692;2023-10-13T02:44:56;0.65;;;0.65;;
15181;SDS011;7692;50.602;8.692;2023-10-13T02:47:24;0.70;;;0.70;;
15181;SDS011;7692;50.602;8.692;2023-10-13T02:49:53;0.60;;;0.60;;
15181;SDS011;7692;50.602;8.692;2023-10-13T02:52:21;0.70;;;0.70;;
15181;SDS011;7692;50.602;8.692;2023-10-13T02:54:51;0.60;;;0.60;;
15181;SDS011;7692;50.602;8.692;2023-10-13T02:57:19;0.60;;;0.60;;
15181;SDS011;7692;50.602;8.692;2023-10-13T02:59:50;0.65;;;0.65;;
15181;SDS011;7692;50.602;8.692;2023-10-13T03:02:23;0.60;;;0.60;;
15181;SDS011;7692;50.602;8.692;2023-10-13T03:04:52;0.68;;;0.68;;
15181;SDS011;7692;50.602;8.692;2023-10-13T03:07:26;0.60;;;0.60;;
15181;SDS011;7692;50.602;8.692;2023-10-13T03:09:56;0.60;;;0.60;;
15181;SDS011;7692;50.602;8.692;2023-10-13T03:12:28;0.60;;;0.60;;
15181;SDS011;7692;50.602;8.692;2023-10-13T03:14:59;0.63;;;0.63;;
15181;SDS011;7692;50.602;8.692;2023-10-13T03:17:39;0.60;;;0.60;;
15181;SDS011;7692;50.602;8.692;2023-10-13T03:20:10;0.70;;;0.70;;
15181;SDS011;7692;50.602;8.692;2023-10-13T03:22:39;0.70;;;0.70;;
15181;SDS011;7692;50.602;8.692;2023-10-13T03:25:11;0.60;;;0.60;;
15181;SDS011;7692;50.602;8.692;2023-10-13T03:27:51;0.63;;;0.63;;
15181;SDS011;7692;50.602;8.692;2023-10-13T03:30:31;0.70;;;0.70;;
15181;SDS011;7692;50.602;8.692;2023-10-13T03:33:02;0.63;;;0.63;;
15181;SDS011;7692;50.602;8.692;2023-10-13T03:35:34;0.70;;;0.70;;
15181;SDS011;7692;50.602;8.692;2023-10-13T03:38:08;0.70;;;0.70;;
15181;SDS011;7692;50.602;8.692;2023-10-13T03:40:43;0.70;;;0.70;;
15181;SDS011;7692;50.602;8.692;2023-10-13T03:43:35;0.70;;;0.70;;
15181;SDS011;7692;50.602;8.692;2023-10-13T03:46:12;0.70;;;0.70;;
15181;SDS011;7692;50.602;8.692;2023-10-13T03:48:40;0.70;;;0.70;;
15181;SDS011;7692;50.602;8.692;2023-10-13T03:51:21;0.70;;;0.70;;
15181;SDS011;7692;50.602;8.692;2023-10-13T03:53:57;0.70;;;0.70;;
15181;SDS011;7692;50.602;8.692;2023-10-13T03:56:26;0.60;;;0.60;;
15181;SDS011;7692;50.602;8.692;2023-10-13T03:59:06;0.70;;;0.70;;
15181;SDS011;7692;50.602;8.692;2023-10-13T04:01:44;0.60;;;0.60;;
15181;SDS011;7692;50.602;8.692;2023-10-13T04:04:14;0.70;;;0.70;;
15181;SDS011;7692;50.602;8.692;2023-10-13T04:07:00;0.60;;;0.60;;
15181;SDS011;7692;50.602;8.692;2023-10-13T04:09:53;0.70;;;0.70;;
15181;SDS011;7692;50.602;8.692;2023-10-13T04:12:40;0.65;;;0.65;;
15181;SDS011;7692;50.602;8.692;2023-10-13T04:15:27;0.70;;;0.70;;
15181;SDS011;7692;50.602;8.692;2023-10-13T04:18:05;0.70;;;0.70;;
15181;SDS011;7692;50.602;8.692;2023-10-13T04:21:00;0.70;;;0.70;;
15181;SDS011;7692;50.602;8.692;2023-10-13T04:23:45;0.70;;;0.70;;
15181;SDS011;7692;50.602;8.692;2023-10-13T04:26:30;0.70;;;0.70;;
15181;SDS011;7692;50.602;8.692;2023-10-13T04:29:04;0.70;;;0.70;;
15181;SDS011;7692;50.602;8.692;2023-10-13T04:31:38;0.70;;;0.70;;
15181;SDS011;7692;50.602;8.692;2023-10-13T04:34:20;0.70;;;0.70;;
15181;SDS011;7692;50.602;8.692;2023-10-13T04:36:54;0.70;;;0.70;;
15181;SDS011;7692;50.602;8.692;2023-10-13T04:39:49;0.65;;;0.65;;
15181;SDS011;7692;50.602;8.692;2023-10-13T04:42:23;0.70;;;0.70;;
15181;SDS011;7692;50.602;8.692;2023-10-13T04:45:06;0.70;;;0.70;;
15181;SDS011;7692;50.602;8.692;2023-10-13T04:48:05;0.65;;;0.65;;
15181;SDS011;7692;50.602;8.692;2023-10-13T04:50:58;0.70;;;0.70;;
15181;SDS011;7692;50.602;8.692;2023-10-13T04:53:41;0.70;;;0.70;;
15181;SDS011;7692;50.602;8.692;2023-10-13T04:56:23;0.60;;;0.60;;
15181;SDS011;7692;50.602;8.692;2023-10-13T04:59:09;0.70;;;0.70;;
15181;SDS011;7692;50.602;8.692;2023-10-13T05:02:01;0.70;;;0.70;;
15181;SDS011;7692;50.602;8.692;2023-10-13T05:04:49;0.73;;;0.73;;
15181;SDS011;7692;50.602;8.692;2023-10-13T05:07:35;0.70;;;0.70;;
15181;SDS011;7692;50.602;8.692;2023-10-13T05:10:21;0.70;;;0.70;;
15181;SDS011;7692;50.602;8.692;2023-10-13T05:13:08;0.70;;;0.70;;
15181;SDS011;7692;50.602;8.692;2023-10-13T05:15:53;0.70;;;0.70;;
15181;SDS011;7692;50.602;8.692;2023-10-13T05:18:39;0.70;;;0.70;;
15181;SDS011;7692;50.602;8.692;2023-10-13T05:21:26;0.70;;;0.70;;
15181;SDS011;7692;50.602;8.692;2023-10-13T05:24:12;0.70;;;0.70;;
15181;SDS011;7692;50.602;8.692;2023-10-13T05:26:57;0.70;;;0.70;;
15181;SDS011;7692;50.602;8.692;2023-10-13T05:29:44;0.70;;;0.70;;
15181;SDS011;7692;50.602;8.692;2023-10-13T05:32:31;0.70;;;0.70;;
15181;SDS011;7692;50.602;8.692;2023-10-13T05:35:20;0.75;;;0.75;;
15181;SDS011;7692;50.602;8.692;2023-10-13T05:38:07;0.70;;;0.70;;
15181;SDS011;7692;50.602;8.692;2023-10-13T05:40:53;0.70;;;0.70;;
15181;SDS011;7692;50.602;8.692;2023-10-13T05:43:42;0.75;;;0.75;;
15181;SDS011;7692;50.602;8.692;2023-10-13T05:46:28;0.70;;;0.70;;
15181;SDS011;7692;50.602;8.692;2023-10-13T05:49:16;0.68;;;0.68;;
15181;SDS011;7692;50.602;8.692;2023-10-13T05:52:16;0.63;;;0.63;;
15181;SDS011;7692;50.602;8.692;2023-10-13T05:55:08;0.70;;;0.70;;
15181;SDS011;7692;50.602;8.692;2023-10-13T05:57:57;0.70;;;0.70;;
15181;SDS011;7692;50.602;8.692;2023-10-13T06:00:43;0.60;;;0.60;;
15181;SDS011;7692;50.602;8.692;2023-10-13T06:03:29;0.70;;;0.70;;
15181;SDS011;7692;50.602;8.692;2023-10-13T06:06:14;0.70;;;0.70;;
15181;SDS011;7692;50.602;8.692;2023-10-13T06:09:00;0.70;;;0.70;;
15181;SDS011;7692;50.602;8.692;2023-10-13T06:11:47;0.60;;;0.60;;
15181;SDS011;7692;50.602;8.692;2023-10-13T06:14:33;0.70;;;0.70;;
15181;SDS011;7692;50.602;8.692;2023-10-13T06:17:19;0.65;;;0.65;;
15181;SDS011;7692;50.602;8.692;2023-10-13T06:20:07;0.60;;;0.60;;
15181;SDS011;7692;50.602;8.692;2023-10-13T06:22:57;0.60;;;0.60;;
15181;SDS011;7692;50.602;8.692;2023-10-13T06:25:43;0.60;;;0.60;;
15181;SDS011;7692;50.602;8.692;2023-10-13T06:28:36;0.60;;;0.60;;
15181;SDS011;7692;50.602;8.692;2023-10-13T06:31:08;0.70;;;0.70;;
15181;SDS011;7692;50.602;8.692;2023-10-13T06:33:41;0.70;;;0.70;;
15181;SDS011;7692;50.602;8.692;2023-10-13T06:36:11;0.60;;;0.60;;
15181;SDS011;7692;50.602;8.692;2023-10-13T06:38:39;0.65;;;0.65;;
15181;SDS011;7692;50.602;8.692;2023-10-13T06:41:08;0.60;;;0.60;;
15181;SDS011;7692;50.602;8.692;2023-10-13T06:43:48;0.60;;;0.60;;
15181;SDS011;7692;50.602;8.692;2023-10-13T06:46:26;0.60;;;0.60;;
15181;SDS011;7692;50.602;8.692;2023-10-13T06:48:56;0.60;;;0.60;;
15181;SDS011;7692;50.602;8.692;2023-10-13T06:51:26;0.60;;;0.60;;
15181;SDS011;7692;50.602;8.692;2023-10-13T06:53:58;0.70;;;0.70;;
15181;SDS011;7692;50.602;8.692;2023-10-13T06:56:32;0.60;;;0.60;;
15181;SDS011;7692;50.602;8.692;2023-10-13T06:59:07;0.60;;;0.60;;
15181;SDS011;7692;50.602;8.692;2023-10-13T07:01:35;0.60;;;0.60;;
15181;SDS011;7692;50.602;8.692;2023-10-13T07:04:07;0.70;;;0.70;;
15181;SDS011;7692;50.602;8.692;2023-10-13T07:06:41;0.60;;;0.60;;
15181;SDS011;7692;50.602;8.692;2023-10-13T07:09:14;0.60;;;0.60;;
15181;SDS011;7692;50.602;8.692;2023-10-13T07:12:06;0.60;;;0.60;;
15181;SDS011;7692;50.602;8.692;2023-10-13T07:14:47;0.60;;;0.60;;
15181;SDS011;7692;50.602;8.692;2023-10-13T07:17:19;0.60;;;0.60;;
15181;SDS011;7692;50.602;8.692;2023-10-13T07:19:51;0.60;;;0.60;;
15181;SDS011;7692;50.602;8.692;2023-10-13T07:22:32;0.60;;;0.60;;
15181;SDS011;7692;50.602;8.692;2023-10-13T07:25:06;0.60;;;0.60;;
15181;SDS011;7692;50.602;8.692;2023-10-13T07:27:34;0.60;;;0.60;;
15181;SDS011;7692;50.602;8.692;2023-10-13T07:30:05;0.60;;;0.60;;
15181;SDS011;7692;50.602;8.692;2023-10-13T07:32:40;0.60;;;0.60;;
15181;SDS011;7692;50.602;8.692;2023-10-13T07:35:14;0.60;;;0.60;;
15181;SDS011;7692;50.602;8.692;2023-10-13T07:37:46;0.60;;;0.60;;
15181;SDS011;7692;50.602;8.692;2023-10-13T07:40:18;0.60;;;0.60;;
15181;SDS011;7692;50.602;8.692;2023-10-13T07:43:07;0.60;;;0.60;;
15181;SDS011;7692;50.602;8.692;2023-10-13T07:45:40;0.60;;;0.60;;
15181;SDS011;7692;50.602;8.692;2023-10-13T07:48:10;0.60;;;0.60;;
15181;SDS011;7692;50.602;8.692;2023-10-13T07:50:47;0.60;;;0.60;;
15181;SDS011;7692;50.602;8.692;2023-10-13T07:53:27;0.60;;;0.60;;
15181;SDS011;7692;50.602;8.692;2023-10-13T07:56:01;0.60;;;0.60;;
15181;SDS011;7692;50.602;8.692;2023-10-13T07:58:31;0.63;;;0.63;;
15181;SDS011;7692;50.602;8.692;2023-10-13T08:01:01;0.60;;;0.60;;
15181;SDS011;7692;50.602;8.692;2023-10-13T08:03:34;0.60;;;0.60;;
15181;SDS011;7692;50.602;8.692;2023-10-13T08:06:10;0.60;;;0.60;;
15181;SDS011;7692;50.602;8.692;2023-10-13T08:08:55;0.60;;;0.60;;
15181;SDS011;7692;50.602;8.692;2023-10-13T08:11:34;0.50;;;0.50;;
15181;SDS011;7692;50.602;8.692;2023-10-13T08:14:04;0.60;;;0.60;;
15181;SDS011;7692;50.602;8.692;2023-10-13T08:17:05;0.60;;;0.60;;
15181;SDS011;7692;50.602;8.692;2023-10-13T08:19:34;0.60;;;0.60;;
15181;SDS011;7692;50.602;8.692;2023-10-13T08:22:12;0.60;;;0.60;;
15181;SDS011;7692;50.602;8.692;2023-10-13T08:24:52;0.52;;;0.52;;
15181;SDS011;7692;50.602;8.692;2023-10-13T08:27:41;0.50;;;0.50;;
15181;SDS011;7692;50.602;8.692;2023-10-13T08:30:23;0.50;;;0.50;;
15181;SDS011;7692;50.602;8.692;2023-10-13T08:32:57;0.50;;;0.50;;
15181;SDS011;7692;50.602;8.692;2023-10-13T08:35:43;0.50;;;0.50;;
15181;SDS011;7692;50.602;8.692;2023-10-13T08:38:32;0.50;;;0.50;;
15181;SDS011;7692;50.602;8.692;2023-10-13T08:41:17;0.50;;;0.50;;
15181;SDS011;7692;50.602;8.692;2023-10-13T08:44:01;0.52;;;0.52;;
15181;SDS011;7692;50.602;8.692;2023-10-13T08:46:35;0.50;;;0.50;;
15181;SDS011;7692;50.602;8.692;2023-10-13T08:49:33;0.50;;;0.50;;
15181;SDS011;7692;50.602;8.692;2023-10-13T08:52:10;0.50;;;0.50;;
15181;SDS011;7692;50.602;8.692;2023-10-13T08:54:59;0.50;;;0.50;;
15181;SDS011;7692;50.602;8.692;2023-10-13T08:57:53;0.50;;;0.50;;
15181;SDS011;7692;50.602;8.692;2023-10-13T09:00:28;0.50;;;0.50;;
15181;SDS011;7692;50.602;8.692;2023-10-13T09:03:19;0.40;;;0.40;;
15181;SDS011;7692;50.602;8.692;2023-10-13T09:06:06;0.50;;;0.50;;
15181;SDS011;7692;50.602;8.692;2023-10-13T09:08:41;0.50;;;0.50;;
15181;SDS011;7692;50.602;8.692;2023-10-13T09:11:31;0.50;;;0.50;;
15181;SDS011;7692;50.602;8.692;2023-10-13T09:14:15;0.50;;;0.50;;
15181;SDS011;7692;50.602;8.692;2023-10-13T09:17:01;0.50;;;0.50;;
15181;SDS011;7692;50.602;8.692;2023-10-13T09:19:43;0.40;;;0.40;;
15181;SDS011;7692;50.602;8.692;2023-10-13T09:22:21;0.50;;;0.50;;
15181;SDS011;7692;50.602;8.692;2023-10-13T09:24:57;0.50;;;0.50;;
15181;SDS011;7692;50.602;8.692;2023-10-13T09:27:27;0.50;;;0.50;;
15181;SDS011;7692;50.602;8.692;2023-10-13T09:30:00;0.40;;;0.40;;
15181;SDS011;7692;50.602;8.692;2023-10-13T09:32:35;0.40;;;0.40;;
15181;SDS011;7692;50.602;8.692;2023-10-13T09:35:15;0.40;;;0.40;;
15181;SDS011;7692;50.602;8.692;2023-10-13T09:37:50;0.32;;;0.32;;
15181;SDS011;7692;50.602;8.692;2023-10-13T09:40:22;0.40;;;0.40;;
15181;SDS011;7692;50.602;8.692;2023-10-13T09:43:00;0.40;;;0.40;;
15181;SDS011;7692;50.602;8.692;2023-10-13T09:45:33;0.40;;;0.40;;
15181;SDS011;7692;50.602;8.692;2023-10-13T09:48:10;0.40;;;0.40;;
15181;SDS011;7692;50.602;8.692;2023-10-13T09:50:48;0.40;;;0.40;;
15181;SDS011;7692;50.602;8.692;2023-10-13T09:53:17;0.40;;;0.40;;
15181;SDS011;7692;50.602;8.692;2023-10-13T09:55:47;0.40;;;0.40;;
15181;SDS011;7692;50.602;8.692;2023-10-13T09:58:16;0.40;;;0.40;;
15181;SDS011;7692;50.602;8.692;2023-10-13T10:00:56;0.40;;;0.40;;
15181;SDS011;7692;50.602;8.692;2023-10-13T10:03:43;0.40;;;0.40;;
15181;SDS011;7692;50.602;8.692;2023-10-13T10:06:21;0.43;;;0.43;;
15181;SDS011;7692;50.602;8.692;2023-10-13T10:09:05;0.38;;;0.38;;
15181;SDS011;7692;50.602;8.692;2023-10-13T10:11:46;0.40;;;0.40;;
15181;SDS011;7692;50.602;8.692;2023-10-13T10:14:25;0.40;;;0.40;;
15181;SDS011;7692;50.602;8.692;2023-10-13T10:17:08;0.40;;;0.40;;
15181;SDS011;7692;50.602;8.692;2023-10-13T10:19:48;0.40;;;0.40;;
15181;SDS011;7692;50.602;8.692;2023-10-13T10:22:27;0.40;;;0.40;;
15181;SDS011;7692;50.602;8.692;2023-10-13T10:25:01;0.30;;;0.30;;
15181;SDS011;7692;50.602;8.692;2023-10-13T10:27:30;0.30;;;0.30;;
15181;SDS011;7692;50.602;8.692;2023-10-13T10:29:59;0.40;;;0.40;;
15181;SDS011;7692;50.602;8.692;2023-10-13T10:32:33;0.40;;;0.40;;
15181;SDS011;7692;50.602;8.692;2023-10-13T10:35:03;0.40;;;0.40;;
15181;SDS011;7692;50.602;8.692;2023-10-13T10:37:41;0.40;;;0.40;;
15181;SDS011;7692;50.602;8.692;2023-10-13T10:40:16;0.40;;;0.40;;
15181;SDS011;7692;50.602;8.692;2023-10-13T10:43:10;0.40;;;0.40;;
15181;SDS011;7692;50.602;8.692;2023-10-13T10:45:58;0.40;;;0.40;;
15181;SDS011;7692;50.602;8.692;2023-10-13T10:48:26;0.40;;;0.40;;
15181;SDS011;7692;50.602;8.692;2023-10-13T10:51:00;0.38;;;0.38;;
15181;SDS011;7692;50.602;8.692;2023-10-13T10:53:40;0.30;;;0.30;;
15181;SDS011;7692;50.602;8.692;2023-10-13T10:56:12;0.40;;;0.40;;
15181;SDS011;7692;50.602;8.692;2023-10-13T10:58:47;0.38;;;0.38;;
15181;SDS011;7692;50.602;8.692;2023-10-13T11:01:15;0.40;;;0.40;;
15181;SDS011;7692;50.602;8.692;2023-10-13T11:03:54;0.40;;;0.40;;
15181;SDS011;7692;50.602;8.692;2023-10-13T11:06:34;0.40;;;0.40;;
15181;SDS011;7692;50.602;8.692;2023-10-13T11:09:08;0.40;;;0.40;;
15181;SDS011;7692;50.602;8.692;2023-10-13T11:11:48;0.40;;;0.40;;
15181;SDS011;7692;50.602;8.692;2023-10-13T11:14:19;0.45;;;0.45;;
15181;SDS011;7692;50.602;8.692;2023-10-13T11:16:50;0.40;;;0.40;;
15181;SDS011;7692;50.602;8.692;2023-10-13T11:19:20;0.40;;;0.40;;
15181;SDS011;7692;50.602;8.692;2023-10-13T11:21:52;0.40;;;0.40;;
15181;SDS011;7692;50.602;8.692;2023-10-13T11:24:22;0.40;;;0.40;;
15181;SDS011;7692;50.602;8.692;2023-10-13T11:26:51;0.40;;;0.40;;
15181;SDS011;7692;50.602;8.692;2023-10-13T11:29:30;0.40;;;0.40;;
15181;SDS011;7692;50.602;8.692;2023-10-13T11:32:00;0.40;;;0.40;;
15181;SDS011;7692;50.602;8.692;2023-10-13T11:34:29;0.40;;;0.40;;
15181;SDS011;7692;50.602;8.692;2023-10-13T11:37:07;0.40;;;0.40;;
15181;SDS011;7692;50.602;8.692;2023-10-13T11:39:52;0.40;;;0.40;;
15181;SDS011;7692;50.602;8.692;2023-10-13T11:42:22;0.40;;;0.40;;
15181;SDS011;7692;50.602;8.692;2023-10-13T11:44:53;0.40;;;0.40;;
15181;SDS011;7692;50.602;8.692;2023-10-13T11:47:41;0.40;;;0.40;;
15181;SDS011;7692;50.602;8.692;2023-10-13T11:50:17;0.40;;;0.40;;
15181;SDS011;7692;50.602;8.692;2023-10-13T11:52:58;0.40;;;0.40;;
15181;SDS011;7692;50.602;8.692;2023-10-13T11:55:26;0.40;;;0.40;;
15181;SDS011;7692;50.602;8.692;2023-10-13T11:57:56;0.40;;;0.40;;
15181;SDS011;7692;50.602;8.692;2023-10-13T12:00:25;0.40;;;0.40;;
15181;SDS011;7692;50.602;8.692;2023-10-13T12:03:14;0.40;;;0.40;;
15181;SDS011;7692;50.602;8.692;2023-10-13T12:05:59;0.38;;;0.38;;
15181;SDS011;7692;50.602;8.692;2023-10-13T12:08:45;0.50;;;0.50;;
15181;SDS011;7692;50.602;8.692;2023-10-13T12:11:18;0.50;;;0.50;;
15181;SDS011;7692;50.602;8.692;2023-10-13T12:13:59;0.40;;;0.40;;
15181;SDS011;7692;50.602;8.692;2023-10-13T12:16:38;0.35;;;0.35;;
15181;SDS011;7692;50.602;8.692;2023-10-13T12:19:06;0.40;;;0.40;;
15181;SDS011;7692;50.602;8.692;2023-10-13T12:21:37;0.40;;;0.40;;
15181;SDS011;7692;50.602;8.692;2023-10-13T12:24:05;0.40;;;0.40;;
15181;SDS011;7692;50.602;8.692;2023-10-13T12:26:38;0.50;;;0.50;;
15181;SDS011;7692;50.602;8.692;2023-10-13T12:29:10;0.40;;;0.40;;
15181;SDS011;7692;50.602;8.692;2023-10-13T12:31:48;0.45;;;0.45;;
15181;SDS011;7692;50.602;8.692;2023-10-13T12:34:27;0.40;;;0.40;;
15181;SDS011;7692;50.602;8.692;2023-10-13T12:37:18;0.38;;;0.38;;
15181;SDS011;7692;50.602;8.692;2023-10-13T12:40:06;0.50;;;0.50;;
15181;SDS011;7692;50.602;8.692;2023-10-13T12:42:53;0.30;;;0.30;;
15181;SDS011;7692;50.602;8.692;2023-10-13T12:45:40;0.40;;;0.40;;
15181;SDS011;7692;50.602;8.692;2023-10-13T12:48:26;0.35;;;0.35;;
15181;SDS011;7692;50.602;8.692;2023-10-13T12:51:12;0.40;;;0.40;;
15181;SDS011;7692;50.602;8.692;2023-10-13T12:54:06;0.40;;;0.40;;
15181;SDS011;7692;50.602;8.692;2023-10-13T12:56:42;0.40;;;0.40;;
15181;SDS011;7692;50.602;8.692;2023-10-13T12:59:10;0.45;;;0.45;;
15181;SDS011;7692;50.602;8.692;2023-10-13T13:01:41;0.40;;;0.40;;
15181;SDS011;7692;50.602;8.692;2023-10-13T13:04:10;0.40;;;0.40;;
15181;SDS011;7692;50.602;8.692;2023-10-13T13:06:45;0.40;;;0.40;;
15181;SDS011;7692;50.602;8.692;2023-10-13T13:09:13;0.40;;;0.40;;
15181;SDS011;7692;50.602;8.692;2023-10-13T13:11:41;0.40;;;0.40;;
15181;SDS011;7692;50.602;8.692;2023-10-13T13:14:09;0.40;;;0.40;;
15181;SDS011;7692;50.602;8.692;2023-10-13T13:16:37;0.40;;;0.40;;
15181;SDS011;7692;50.602;8.692;2023-10-13T13:19:07;0.32;;;0.32;;
15181;SDS011;7692;50.602;8.692;2023-10-13T13:21:40;0.40;;;0.40;;
15181;SDS011;7692;50.602;8.692;2023-10-13T13:24:08;0.40;;;0.40;;
15181;SDS011;7692;50.602;8.692;2023-10-13T13:26:40;0.40;;;0.40;;
15181;SDS011;7692;50.602;8.692;2023-10-13T13:29:08;0.40;;;0.40;;
15181;SDS011;7692;50.602;8.692;2023-10-13T13:31:37;0.40;;;0.40;;
15181;SDS011;7692;50.602;8.692;2023-10-13T13:34:11;0.40;;;0.40;;
15181;SDS011;7692;50.602;8.692;2023-10-13T13:36:39;0.40;;;0.40;;
15181;SDS011;7692;50.602;8.692;2023-10-13T13:39:10;0.40;;;0.40;;
15181;SDS011;7692;50.602;8.692;2023-10-13T13:41:38;0.40;;;0.40;;
15181;SDS011;7692;50.602;8.692;2023-10-13T13:44:08;0.40;;;0.40;;
15181;SDS011;7692;50.602;8.692;2023-10-13T13:46:40;0.40;;;0.40;;
15181;SDS011;7692;50.602;8.692;2023-10-13T13:49:10;0.40;;;0.40;;
15181;SDS011;7692;50.602;8.692;2023-10-13T13:51:45;0.40;;;0.40;;
15181;SDS011;7692;50.602;8.692;2023-10-13T13:54:18;0.40;;;0.40;;
15181;SDS011;7692;50.602;8.692;2023-10-13T13:56:47;0.40;;;0.40;;
15181;SDS011;7692;50.602;8.692;2023-10-13T13:59:18;0.40;;;0.40;;
15181;SDS011;7692;50.602;8.692;2023-10-13T14:01:47;0.40;;;0.40;;
15181;SDS011;7692;50.602;8.692;2023-10-13T14:04:18;0.40;;;0.40;;
15181;SDS011;7692;50.602;8.692;2023-10-13T14:06:47;0.40;;;0.40;;
15181;SDS011;7692;50.602;8.692;2023-10-13T14:09:16;0.40;;;0.40;;
15181;SDS011;7692;50.602;8.692;2023-10-13T14:11:59;0.40;;;0.40;;
15181;SDS011;7692;50.602;8.692;2023-10-13T14:14:44;0.40;;;0.40;;
15181;SDS011;7692;50.602;8.692;2023-10-13T14:17:17;0.40;;;0.40;;
15181;SDS011;7692;50.602;8.692;2023-10-13T14:19:46;0.40;;;0.40;;
15181;SDS011;7692;50.602;8.692;2023-10-13T14:22:14;0.40;;;0.40;;
15181;SDS011;7692;50.602;8.692;2023-10-13T14:24:42;0.30;;;0.30;;
15181;SDS011;7692;50.602;8.692;2023-10-13T14:27:17;0.40;;;0.40;;
15181;SDS011;7692;50.602;8.692;2023-10-13T14:29:47;0.30;;;0.30;;
15181;SDS011;7692;50.602;8.692;2023-10-13T14:32:19;0.30;;;0.30;;
15181;SDS011;7692;50.602;8.692;2023-10-13T14:34:55;0.30;;;0.30;;
15181;SDS011;7692;50.602;8.692;2023-10-13T14:37:23;0.30;;;0.30;;
15181;SDS011;7692;50.602;8.692;2023-10-13T14:39:56;0.38;;;0.38;;
15181;SDS011;7692;50.602;8.692;2023-10-13T14:42:26;0.40;;;0.40;;
15181;SDS011;7692;50.602;8.692;2023-10-13T14:44:55;0.40;;;0.40;;
15181;SDS011;7692;50.602;8.692;2023-10-13T14:47:23;0.38;;;0.38;;
15181;SDS011;7692;50.602;8.692;2023-10-13T14:49:52;0.40;;;0.40;;
15181;SDS011;7692;50.602;8.692;2023-10-13T14:52:22;0.40;;;0.40;;
15181;SDS011;7692;50.602;8.692;2023-10-13T14:54:50;0.32;;;0.32;;
15181;SDS011;7692;50.602;8.692;2023-10-13T14:57:22;0.40;;;0.40;;
15181;SDS011;7692;50.602;8.692;2023-10-13T14:59:52;0.40;;;0.40;;
15181;SDS011;7692;50.602;8.692;2023-10-13T15:02:20;0.40;;;0.40;;
15181;SDS011;7692;50.602;8.692;2023-10-13T15:04:49;0.30;;;0.30;;
15181;SDS011;7692;50.602;8.692;2023-10-13T15:07:24;0.40;;;0.40;;
15181;SDS011;7692;50.602;8.692;2023-10-13T15:09:54;0.40;;;0.40;;
15181;SDS011;7692;50.602;8.692;2023-10-13T15:12:23;0.40;;;0.40;;
15181;SDS011;7692;50.602;8.692;2023-10-13T15:14:54;0.40;;;0.40;;
15181;SDS011;7692;50.602;8.692;2023-10-13T15:17:25;0.38;;;0.38;;
15181;SDS011;7692;50.602;8.692;2023-10-13T15:19:56;0.38;;;0.38;;
15181;SDS011;7692;50.602;8.692;2023-10-13T15:22:26;0.30;;;0.30;;
15181;SDS011;7692;50.602;8.692;2023-10-13T15:24:54;0.40;;;0.40;;
15181;SDS011;7692;50.602;8.692;2023-10-13T15:27:36;0.40;;;0.40;;
15181;SDS011;7692;50.602;8.692;2023-10-13T15:30:08;0.43;;;0.43;;
15181;SDS011;7692;50.602;8.692;2023-10-13T15:32:46;0.40;;;0.40;;
15181;SDS011;7692;50.602;8.692;2023-10-13T15:35:16;0.40;;;0.40;;
15181;SDS011;7692;50.602;8.692;2023-10-13T15:37:45;0.40;;;0.40;;
15181;SDS011;7692;50.602;8.692;2023-10-13T15:40:17;0.40;;;0.40;;
15181;SDS011;7692;50.602;8.692;2023-10-13T15:42:45;0.40;;;0.40;;
15181;SDS011;7692;50.602;8.692;2023-10-13T15:45:13;0.40;;;0.40;;
15181;SDS011;7692;50.602;8.692;2023-10-13T15:47:44;0.40;;;0.40;;
15181;SDS011;7692;50.602;8.692;2023-10-13T15:50:36;0.40;;;0.40;;
15181;SDS011;7692;50.602;8.692;2023-10-13T15:53:08;0.40;;;0.40;;